createdAt,value
2019-05-02T00:03:35.978Z,9.18
2019-05-02T00:13:40.178Z,9.33
2019-05-02T00:23:42.781Z,9.45
2019-05-02T00:33:47.472Z,9.48
2019-05-02T00:43:50.770Z,9.14
2019-05-02T00:53:54.978Z,9.54
2019-05-02T01:04:05.000Z,9.38
2019-05-02T01:14:11.296Z,9.20
2019-05-02T01:24:14.427Z,9.16
2019-05-02T01:34:19.940Z,9.24
2019-05-02T01:44:24.204Z,9.42
2019-05-02T01:54:27.063Z,9.51
2019-05-02T02:04:30.315Z,9.52
2019-05-02T02:14:32.870Z,9.59
2019-05-02T02:24:40.312Z,9.55
2019-05-02T02:34:45.003Z,9.53
2019-05-02T02:44:50.418Z,9.47
2019-05-02T02:54:54.638Z,9.45
2019-05-02T03:05:04.077Z,9.46
2019-05-02T03:15:13.574Z,9.48
2019-05-02T03:25:27.003Z,9.52
2019-05-02T03:35:40.634Z,9.60
2019-05-02T03:45:32.285Z,9.68
2019-05-02T03:55:36.156Z,9.74
2019-05-02T04:05:40.606Z,9.85
2019-05-02T04:15:44.378Z,10.22
2019-05-02T04:25:49.293Z,10.94
2019-05-02T04:35:51.981Z,11.65
2019-05-02T04:45:59.731Z,11.86
2019-05-02T04:56:06.659Z,12.80
2019-05-02T05:06:10.767Z,13.68
2019-05-02T05:16:15.528Z,13.48
2019-05-02T05:26:17.482Z,12.69
2019-05-02T05:36:29.233Z,14.33
2019-05-02T05:46:28.056Z,15.03
2019-05-02T05:56:32.460Z,15.38
2019-05-02T06:06:37.789Z,17.21
2019-05-02T06:16:41.242Z,17.73
2019-05-02T06:26:44.796Z,17.28
2019-05-02T06:36:49.427Z,17.76
2019-05-02T06:46:52.001Z,18.33
2019-05-02T06:56:55.555Z,19.36
2019-05-02T07:06:59.995Z,20.65
2019-05-02T07:17:17.608Z,21.78
2019-05-02T07:27:21.138Z,20.50
2019-05-02T07:37:23.697Z,20.79
2019-05-02T07:47:28.831Z,20.36
2019-05-02T07:57:32.413Z,20.12
2019-05-02T08:07:38.002Z,20.94
2019-05-02T08:17:40.679Z,23.57
2019-05-02T08:27:49.589Z,24.18
2019-05-02T08:37:52.197Z,21.26
2019-05-02T08:47:55.481Z,23.43
2019-05-02T08:58:00.370Z,23.37
2019-05-02T09:08:04.654Z,23.25
2019-05-02T09:18:07.235Z,23.02
2019-05-02T09:28:12.515Z,23.56
2019-05-02T09:38:16.397Z,23.07
2019-05-02T09:48:22.850Z,22.98
2019-05-02T09:58:25.767Z,24.54
2019-05-02T10:08:28.460Z,25.76
2019-05-02T10:18:32.919Z,26.13
2019-05-02T10:28:35.800Z,27.17
2019-05-02T10:38:39.387Z,26.42
2019-05-02T10:48:43.995Z,26.54
2019-05-02T10:58:46.827Z,22.71
2019-05-02T11:08:49.448Z,22.19
2019-05-02T11:18:58.092Z,21.89
2019-05-02T11:29:02.980Z,22.88
2019-05-02T11:39:19.229Z,23.01
2019-05-02T11:49:15.084Z,18.68
2019-05-02T11:59:22.710Z,20.97
2019-05-02T12:09:24.376Z,22.31
2019-05-02T12:19:26.936Z,20.49
2019-05-02T12:29:29.593Z,20.62
2019-05-02T12:39:33.151Z,19.74
2019-05-02T12:49:43.409Z,20.22
2019-05-02T12:59:46.651Z,20.51
2019-05-02T13:09:49.820Z,20.58
2019-05-02T13:20:00.623Z,21.11
2019-05-02T13:30:03.387Z,20.94
2019-05-02T13:40:22.614Z,19.96
2019-05-02T13:50:27.096Z,20.06
2019-05-02T14:00:38.621Z,19.69
2019-05-02T14:10:44.681Z,19.49
2019-05-02T14:20:48.038Z,19.39
2019-05-02T14:30:52.371Z,19.18
2019-05-02T14:41:03.078Z,18.78
2019-05-02T14:51:06.643Z,18.58
2019-05-02T15:01:09.925Z,18.65
2019-05-02T15:11:16.017Z,18.58
2019-05-02T15:21:22.874Z,18.08
2019-05-02T15:31:33.734Z,17.72
2019-05-02T15:41:39.861Z,17.45
2019-05-02T15:51:43.647Z,17.07
2019-05-02T16:01:52.507Z,16.83
2019-05-02T16:11:56.879Z,16.38
2019-05-02T16:32:37.892Z,15.80
2019-05-02T16:42:43.085Z,15.52
2019-05-02T16:52:47.321Z,15.13
2019-05-02T17:02:50.398Z,14.79
2019-05-02T17:12:58.651Z,14.39
2019-05-02T17:23:06.995Z,14.09
2019-05-02T17:33:12.025Z,13.77
2019-05-02T17:43:15.725Z,13.66
2019-05-02T17:53:18.530Z,13.58
2019-05-02T18:03:24.179Z,13.68
2019-05-02T18:13:29.102Z,13.78
2019-05-02T18:23:32.983Z,13.81
2019-05-02T18:33:41.325Z,13.60
2019-05-02T18:43:45.169Z,13.50
2019-05-02T18:53:47.920Z,13.43
2019-05-02T19:03:56.247Z,13.37
2019-05-02T19:13:57.953Z,13.20
2019-05-02T19:24:02.313Z,13.23
2019-05-02T19:34:06.178Z,13.15
2019-05-02T19:44:09.065Z,12.96
2019-05-02T19:54:12.593Z,12.76
2019-05-02T20:04:19.217Z,12.31
2019-05-02T20:14:22.525Z,12.05
2019-05-02T20:24:29.052Z,11.80
2019-05-02T20:34:32.997Z,11.71
2019-05-02T20:44:37.959Z,11.50
2019-05-02T20:54:42.666Z,11.35
2019-05-02T21:04:45.605Z,11.60
2019-05-02T21:14:51.986Z,11.73
2019-05-02T21:24:55.758Z,11.59
2019-05-02T21:35:02.637Z,11.24
2019-05-02T21:45:08.687Z,11.26
2019-05-02T21:55:14.962Z,11.09
2019-05-02T22:05:17.582Z,11.17
2019-05-02T22:15:21.982Z,11.29
2019-05-02T22:25:27.689Z,10.92
2019-05-02T22:35:31.178Z,10.67
2019-05-02T22:45:35.603Z,10.51
2019-05-02T22:55:38.153Z,10.29
2019-05-02T23:05:42.166Z,9.93
2019-05-02T23:15:45.046Z,9.68
2019-05-02T23:36:23.893Z,9.57
2019-05-02T23:46:26.648Z,9.70
2019-05-02T23:56:32.277Z,9.70
